Time;durP1;ratioP1;P1;durP2;ratioP2;P2;SDS_P1;SDS_P2;PMS_P1;PMS_P2;Temp;Humidity;BMP_temperature;BMP_pressure;BME280_temperature;BME280_humidity;BME280_pressure;Samples;Min_cycle;Max_cycle;Signal;HPM_P1;HPM_P2
2023/09/10 00:02:49;;;;;;;34.42;22.50;;;;;;;;;;6288155;28;20530;-60
2023/09/10 00:05:50;;;;;;;32.63;22.77;;;;;;;;;;6289700;28;20491;-60
2023/09/10 00:08:50;;;;;;;29.70;22.43;;;;;;;;;;6286148;28;20041;-60
2023/09/10 00:11:52;;;;;;;31.80;21.70;;;;;;;;;;6291796;28;20045;-59
2023/09/10 00:14:52;;;;;;;34.30;22.60;;;;;;;;;;6292274;28;20046;-60
2023/09/10 00:17:53;;;;;;;33.88;22.27;;;;;;;;;;6289604;28;20419;-60
2023/09/10 00:20:54;;;;;;;32.53;22.03;;;;;;;;;;6288926;28;20131;-60
2023/09/10 00:23:54;;;;;;;34.03;22.15;;;;;;;;;;6289975;28;20044;-60
2023/09/10 00:26:55;;;;;;;29.40;20.63;;;;;;;;;;6288663;28;20044;-60
2023/09/10 00:29:56;;;;;;;33.97;21.57;;;;;;;;;;6288613;28;20052;-61
2023/09/10 00:32:56;;;;;;;29.57;20.70;;;;;;;;;;6291626;28;20048;-60
2023/09/10 00:35:57;;;;;;;31.17;21.17;;;;;;;;;;6289855;28;20403;-60
2023/09/10 00:38:58;;;;;;;31.77;21.77;;;;;;;;;;6288682;28;20457;-61
2023/09/10 00:41:58;;;;;;;26.92;19.60;;;;;;;;;;6289219;28;20071;-61
2023/09/10 00:44:59;;;;;;;34.30;22.57;;;;;;;;;;6290471;28;20036;-60
2023/09/10 00:47:59;;;;;;;32.63;21.87;;;;;;;;;;6288716;28;20056;-60
2023/09/10 00:51:00;;;;;;;29.03;21.10;;;;;;;;;;6290043;28;20055;-61
2023/09/10 00:54:01;;;;;;;29.47;20.73;;;;;;;;;;6289998;28;20049;-60
2023/09/10 00:57:02;;;;;;;31.90;22.13;;;;;;;;;;6286725;28;20937;-60
2023/09/10 01:00:13;;;;;;;29.57;19.63;;;;;;;;;;6289420;28;20086;-59
2023/09/10 01:03:14;;;;;;;31.77;20.83;;;;;;;;;;6291142;28;20072;-61
2023/09/10 01:06:15;;;;;;;27.60;20.50;;;;;;;;;;6288053;28;20056;-61
2023/09/10 01:09:16;;;;;;;29.53;20.70;;;;;;;;;;6288540;28;20427;-62
2023/09/10 01:12:31;;;;;;;24.80;18.63;;;;;;;;;;6290866;28;20052;-60
2023/09/10 01:15:36;;;;;;;25.85;18.33;;;;;;;;;;6289963;28;20131;-61
2023/09/10 01:18:47;;;;;;;26.38;18.77;;;;;;;;;;6286393;28;20480;-60
2023/09/10 01:21:54;;;;;;;;;;;;;;;;;;6288721;28;20094;-59
2023/09/10 01:24:55;;;;;;;24.70;17.65;;;;;;;;;;6289772;28;20379;-60
2023/09/10 01:27:56;;;;;;;27.15;18.67;;;;;;;;;;6287430;28;20047;-60
2023/09/10 01:30:56;;;;;;;27.95;19.30;;;;;;;;;;6289236;28;20388;-60
2023/09/10 01:34:01;;;;;;;28.73;19.70;;;;;;;;;;6290036;28;20040;-60
2023/09/10 01:37:26;;;;;;;30.05;20.35;;;;;;;;;;6289251;28;20438;-60
2023/09/10 01:40:33;;;;;;;30.63;21.15;;;;;;;;;;6288307;28;20056;-60
2023/09/10 01:43:34;;;;;;;28.42;21.08;;;;;;;;;;6289478;28;20075;-60
2023/09/10 01:46:36;;;;;;;33.38;21.23;;;;;;;;;;6288235;28;20550;-61
2023/09/10 01:49:38;;;;;;;31.20;20.45;;;;;;;;;;6293326;28;20071;-60
2023/09/10 01:52:39;;;;;;;31.35;20.90;;;;;;;;;;6292880;28;20135;-60
2023/09/10 01:55:39;;;;;;;31.92;22.20;;;;;;;;;;6293316;28;20056;-60
2023/09/10 01:58:40;;;;;;;32.90;21.05;;;;;;;;;;6293668;28;20044;-61
2023/09/10 02:01:40;;;;;;;32.42;21.65;;;;;;;;;;6292872;28;20502;-60
2023/09/10 02:04:41;;;;;;;28.17;19.92;;;;;;;;;;6293275;28;20164;-61
2023/09/10 02:07:41;;;;;;;31.77;21.08;;;;;;;;;;6294596;28;20547;-60
2023/09/10 02:10:42;;;;;;;31.33;22.07;;;;;;;;;;6293352;28;20056;-60
2023/09/10 02:16:53;;;;;;;29.45;20.98;;;;;;;;;;6248570;22;20064;-62
2023/09/10 02:19:54;;;;;;;28.58;20.80;;;;;;;;;;6287601;28;20489;-61
2023/09/10 02:22:54;;;;;;;28.55;21.20;;;;;;;;;;6289109;28;20033;-62
2023/09/10 02:25:55;;;;;;;31.40;20.77;;;;;;;;;;6288636;28;20072;-61
2023/09/10 02:28:55;;;;;;;32.08;20.35;;;;;;;;;;6287995;28;20053;-61
2023/09/10 02:31:56;;;;;;;29.20;19.73;;;;;;;;;;6289957;28;20139;-60
2023/09/10 02:34:56;;;;;;;27.42;19.50;;;;;;;;;;6291075;28;20055;-61
2023/09/10 02:37:57;;;;;;;27.05;18.70;;;;;;;;;;6291321;28;20044;-61
2023/09/10 02:40:58;;;;;;;26.97;19.90;;;;;;;;;;6290286;28;20047;-61
2023/09/10 02:43:59;;;;;;;28.33;20.70;;;;;;;;;;6289598;28;20049;-62
2023/09/10 02:46:59;;;;;;;28.30;20.38;;;;;;;;;;6290644;28;20487;-60
2023/09/10 02:50:00;;;;;;;26.63;19.20;;;;;;;;;;6287565;28;20773;-61
2023/09/10 02:53:00;;;;;;;28.42;19.85;;;;;;;;;;6288784;28;20037;-61
2023/09/10 02:56:02;;;;;;;30.77;20.50;;;;;;;;;;6290049;28;20119;-61
2023/09/10 02:59:03;;;;;;;31.65;21.35;;;;;;;;;;6288921;28;20037;-61
2023/09/10 03:02:03;;;;;;;30.48;21.23;;;;;;;;;;6287966;28;20051;-61
2023/09/10 03:05:04;;;;;;;33.25;20.95;;;;;;;;;;6289453;28;20486;-62
2023/09/10 03:08:05;;;;;;;31.33;21.03;;;;;;;;;;6289421;28;20036;-61
2023/09/10 03:11:05;;;;;;;27.48;19.23;;;;;;;;;;6289922;28;20040;-58
2023/09/10 03:14:07;;;;;;;28.10;19.48;;;;;;;;;;6289051;28;20068;-61
2023/09/10 03:17:07;;;;;;;30.58;19.98;;;;;;;;;;6287614;28;20083;-60
2023/09/10 03:20:09;;;;;;;29.45;20.02;;;;;;;;;;6288579;28;20139;-60
2023/09/10 03:23:09;;;;;;;28.35;20.02;;;;;;;;;;6289671;28;20066;-61
2023/09/10 03:26:12;;;;;;;32.92;21.40;;;;;;;;;;6288292;28;20453;-60
2023/09/10 03:29:12;;;;;;;33.05;22.90;;;;;;;;;;6285040;28;20044;-61
2023/09/10 03:32:13;;;;;;;36.75;25.67;;;;;;;;;;6289436;28;20461;-61
2023/09/10 03:35:13;;;;;;;30.83;21.50;;;;;;;;;;6289685;28;20040;-60
2023/09/10 03:38:14;;;;;;;31.27;21.50;;;;;;;;;;6289642;28;20570;-60
2023/09/10 03:41:14;;;;;;;35.38;23.38;;;;;;;;;;6274800;28;20110;-61
2023/09/10 03:44:15;;;;;;;30.45;21.05;;;;;;;;;;6286691;28;20422;-61
2023/09/10 03:47:15;;;;;;;30.15;21.10;;;;;;;;;;6288373;28;20502;-60
2023/09/10 03:50:16;;;;;;;31.20;21.17;;;;;;;;;;6287457;28;20048;-61
2023/09/10 03:53:17;;;;;;;31.90;21.75;;;;;;;;;;6288813;28;20441;-60
2023/09/10 03:56:17;;;;;;;29.42;20.38;;;;;;;;;;6289078;28;20127;-60
2023/09/10 03:59:18;;;;;;;29.17;20.27;;;;;;;;;;6288603;28;20041;-62
2023/09/10 04:02:19;;;;;;;29.63;21.08;;;;;;;;;;6288388;28;20139;-61
2023/09/10 04:05:20;;;;;;;35.23;22.43;;;;;;;;;;6289030;28;20127;-60
2023/09/10 04:08:20;;;;;;;31.98;22.20;;;;;;;;;;6289078;28;20487;-60
2023/09/10 04:11:21;;;;;;;33.88;22.42;;;;;;;;;;6286518;28;20049;-61
2023/09/10 04:14:22;;;;;;;30.65;22.20;;;;;;;;;;6288653;28;20041;-60
2023/09/10 04:17:22;;;;;;;35.50;22.95;;;;;;;;;;6288747;28;20457;-61
2023/09/10 04:20:23;;;;;;;38.63;23.75;;;;;;;;;;6288084;28;20040;-60
2023/09/10 04:23:23;;;;;;;41.95;26.65;;;;;;;;;;6288025;28;20048;-60
2023/09/10 04:26:24;;;;;;;39.95;24.27;;;;;;;;;;6288603;28;20514;-60
2023/09/10 04:29:25;;;;;;;41.55;26.50;;;;;;;;;;6287988;28;20580;-60
2023/09/10 04:32:25;;;;;;;45.28;26.98;;;;;;;;;;6287868;28;20056;-60
2023/09/10 04:35:26;;;;;;;41.55;24.30;;;;;;;;;;6288149;28;20052;-60
2023/09/10 04:38:26;;;;;;;43.85;25.92;;;;;;;;;;6286557;28;20036;-60
2023/09/10 04:41:27;;;;;;;45.60;25.23;;;;;;;;;;6286506;28;20514;-60
2023/09/10 04:44:28;;;;;;;69.50;23.65;;;;;;;;;;6288957;28;20076;-60
2023/09/10 04:47:28;;;;;;;39.67;24.20;;;;;;;;;;6286177;28;20443;-60
2023/09/10 04:50:30;;;;;;;40.17;24.65;;;;;;;;;;6285544;28;20049;-61
2023/09/10 04:53:30;;;;;;;42.47;24.90;;;;;;;;;;6286377;28;20079;-62
2023/09/10 04:56:31;;;;;;;38.05;24.73;;;;;;;;;;6287495;28;20554;-60
2023/09/10 04:59:32;;;;;;;42.13;24.90;;;;;;;;;;6286255;28;20040;-60
2023/09/10 05:02:33;;;;;;;35.60;23.52;;;;;;;;;;6285076;28;20464;-61
2023/09/10 05:05:33;;;;;;;37.75;24.73;;;;;;;;;;6287250;28;20055;-61
2023/09/10 05:08:34;;;;;;;46.05;26.55;;;;;;;;;;6288038;28;20068;-60
2023/09/10 05:11:35;;;;;;;45.78;27.77;;;;;;;;;;6288018;28;20044;-60
2023/09/10 05:14:35;;;;;;;40.33;25.42;;;;;;;;;;6284753;28;20055;-60
2023/09/10 05:17:36;;;;;;;46.15;27.92;;;;;;;;;;6286711;28;20044;-60
2023/09/10 05:20:37;;;;;;;42.03;25.92;;;;;;;;;;6286862;28;20048;-60
2023/09/10 05:23:37;;;;;;;43.13;27.52;;;;;;;;;;6284677;28;20044;-60
2023/09/10 05:26:38;;;;;;;47.63;28.77;;;;;;;;;;6285287;28;20041;-59
2023/09/10 05:29:38;;;;;;;47.58;29.88;;;;;;;;;;6285879;28;20102;-60
2023/09/10 05:32:39;;;;;;;49.38;29.45;;;;;;;;;;6286937;28;20063;-60
2023/09/10 05:35:39;;;;;;;46.45;28.77;;;;;;;;;;6285435;28;20037;-60
2023/09/10 05:38:40;;;;;;;42.70;28.67;;;;;;;;;;6286287;28;20401;-60
2023/09/10 05:41:41;;;;;;;43.72;28.55;;;;;;;;;;6285462;28;20036;-60
2023/09/10 05:44:42;;;;;;;45.65;28.77;;;;;;;;;;6288888;28;20066;-59
2023/09/10 05:47:42;;;;;;;47.00;29.27;;;;;;;;;;6288405;28;20045;-59
2023/09/10 05:50:43;;;;;;;47.97;29.73;;;;;;;;;;6288241;28;20128;-58
2023/09/10 05:53:44;;;;;;;46.33;29.40;;;;;;;;;;6288431;28;20479;-60
2023/09/10 05:56:45;;;;;;;49.55;30.40;;;;;;;;;;6287809;28;20032;-60
2023/09/10 05:59:45;;;;;;;50.23;31.00;;;;;;;;;;6288269;28;20028;-60
2023/09/10 06:02:48;;;;;;;48.97;32.40;;;;;;;;;;6288106;28;20044;-60
2023/09/10 06:05:49;;;;;;;49.20;32.83;;;;;;;;;;6288285;28;20192;-60
2023/09/10 06:08:50;;;;;;;45.45;31.38;;;;;;;;;;6287383;28;20049;-60
2023/09/10 06:11:50;;;;;;;47.23;31.63;;;;;;;;;;6287004;28;20075;-59
2023/09/10 06:14:51;;;;;;;48.80;30.90;;;;;;;;;;6288738;28;20044;-60
2023/09/10 06:17:51;;;;;;;52.03;31.77;;;;;;;;;;6287321;28;20057;-60
2023/09/10 06:20:52;;;;;;;50.00;32.63;;;;;;;;;;6285438;28;20120;-60
2023/09/10 06:23:52;;;;;;;47.35;32.45;;;;;;;;;;6287180;28;20384;-60
2023/09/10 06:26:53;;;;;;;49.13;32.53;;;;;;;;;;6286293;28;20052;-60
2023/09/10 06:29:53;;;;;;;51.00;32.30;;;;;;;;;;6284813;28;20453;-60
2023/09/10 06:32:56;;;;;;;46.97;31.33;;;;;;;;;;6285635;28;20076;-60
2023/09/10 06:35:56;;;;;;;47.85;31.65;;;;;;;;;;6268947;28;20045;-59
2023/09/10 06:38:57;;;;;;;52.43;31.53;;;;;;;;;;6288227;28;20060;-60
2023/09/10 06:41:58;;;;;;;42.57;29.73;;;;;;;;;;6288423;28;20044;-60
2023/09/10 06:44:59;;;;;;;48.20;30.10;;;;;;;;;;6288507;28;20513;-60
2023/09/10 06:47:59;;;;;;;43.03;29.47;;;;;;;;;;6287837;28;20097;-61
2023/09/10 06:51:01;;;;;;;43.80;29.53;;;;;;;;;;6289985;28;20044;-59
2023/09/10 06:54:01;;;;;;;40.35;28.50;;;;;;;;;;6290435;28;20040;-60
2023/09/10 06:57:02;;;;;;;42.73;29.10;;;;;;;;;;6290392;28;20098;-59
2023/09/10 07:00:03;;;;;;;41.67;28.60;;;;;;;;;;6289893;28;20056;-60
2023/09/10 07:03:08;;;;;;;41.15;27.60;;;;;;;;;;6288979;28;20097;-60
2023/09/10 07:06:08;;;;;;;40.47;26.90;;;;;;;;;;6289868;28;20047;-60
2023/09/10 07:09:10;;;;;;;40.60;27.63;;;;;;;;;;6290412;28;20080;-60
2023/09/10 07:12:11;;;;;;;36.17;26.95;;;;;;;;;;6290149;28;20041;-59
2023/09/10 07:15:12;;;;;;;33.40;24.17;;;;;;;;;;6289925;28;20118;-59
2023/09/10 07:18:12;;;;;;;37.33;26.27;;;;;;;;;;6289405;28;20348;-60
2023/09/10 07:21:13;;;;;;;36.80;26.27;;;;;;;;;;6288284;28;20495;-60
2023/09/10 07:24:13;;;;;;;40.33;26.60;;;;;;;;;;6289483;28;20040;-59
2023/09/10 07:27:14;;;;;;;40.90;26.13;;;;;;;;;;6290094;28;20048;-60
2023/09/10 07:30:15;;;;;;;35.40;25.47;;;;;;;;;;6286471;28;20521;-60
2023/09/10 07:33:15;;;;;;;41.33;27.37;;;;;;;;;;6290989;28;20535;-60
2023/09/10 07:36:16;;;;;;;38.53;26.67;;;;;;;;;;6290007;28;20059;-60
2023/09/10 07:39:19;;;;;;;37.30;27.30;;;;;;;;;;6286826;28;20072;-60
2023/09/10 07:42:19;;;;;;;36.65;26.25;;;;;;;;;;6290415;28;20422;-61
2023/09/10 07:45:20;;;;;;;37.57;25.50;;;;;;;;;;6290224;28;20139;-60
2023/09/10 07:48:20;;;;;;;36.80;26.07;;;;;;;;;;6288756;28;20036;-60
2023/09/10 07:51:21;;;;;;;34.33;25.77;;;;;;;;;;6288510;28;20090;-60
2023/09/10 07:54:22;;;;;;;35.67;24.67;;;;;;;;;;6289173;28;20048;-60
2023/09/10 07:57:24;;;;;;;32.60;24.70;;;;;;;;;;6289211;28;20478;-60
2023/09/10 08:00:25;;;;;;;31.58;23.23;;;;;;;;;;6288370;28;20037;-60
2023/09/10 08:03:25;;;;;;;32.50;22.70;;;;;;;;;;6288954;28;20036;-61
2023/09/10 08:06:26;;;;;;;33.00;24.10;;;;;;;;;;6288929;28;20509;-61
2023/09/10 08:09:27;;;;;;;31.10;23.50;;;;;;;;;;6289146;28;20068;-61
2023/09/10 08:12:27;;;;;;;31.47;22.60;;;;;;;;;;6288600;28;20033;-60
2023/09/10 08:15:32;;;;;;;32.20;23.80;;;;;;;;;;6288778;28;20086;-60
2023/09/10 08:18:33;;;;;;;32.80;22.35;;;;;;;;;;6287435;28;20071;-60
2023/09/10 08:21:34;;;;;;;28.57;21.13;;;;;;;;;;6287652;28;20503;-60
2023/09/10 08:24:34;;;;;;;27.70;20.27;;;;;;;;;;6271536;28;20488;-62
2023/09/10 08:27:38;;;;;;;28.47;20.97;;;;;;;;;;6282466;28;20049;-61
2023/09/10 08:30:39;;;;;;;27.13;19.83;;;;;;;;;;6290235;28;20049;-61
2023/09/10 08:33:39;;;;;;;26.50;19.67;;;;;;;;;;6285189;28;20495;-60
2023/09/10 08:36:40;;;;;;;26.20;19.67;;;;;;;;;;6289389;28;20040;-60
2023/09/10 08:39:41;;;;;;;26.67;19.17;;;;;;;;;;6284970;28;20044;-60
2023/09/10 08:43:10;;;;;;;23.27;17.67;;;;;;;;;;6288897;28;20036;-61
2023/09/10 08:46:13;;;;;;;25.00;17.58;;;;;;;;;;6278566;28;20105;-60
2023/09/10 08:49:15;;;;;;;22.55;16.88;;;;;;;;;;6286311;28;20068;-62
2023/09/10 08:52:17;;;;;;;20.08;14.80;;;;;;;;;;6288466;28;20056;-59
2023/09/10 08:55:18;;;;;;;22.02;15.38;;;;;;;;;;6286150;28;20040;-61
2023/09/10 08:58:19;;;;;;;21.48;15.68;;;;;;;;;;6283025;28;20049;-58
2023/09/10 09:01:22;;;;;;;19.92;14.32;;;;;;;;;;6277048;28;20408;-61
2023/09/10 09:04:23;;;;;;;20.23;15.20;;;;;;;;;;6284571;28;20056;-60
2023/09/10 09:07:26;;;;;;;23.90;15.95;;;;;;;;;;6280875;28;20571;-60
2023/09/10 09:10:28;;;;;;;20.02;15.20;;;;;;;;;;6281467;28;20404;-61
2023/09/10 09:13:35;;;;;;;19.42;15.23;;;;;;;;;;6280469;28;20074;-60
2023/09/10 09:16:38;;;;;;;21.08;15.00;;;;;;;;;;6286293;28;20049;-60
2023/09/10 09:19:44;;;;;;;20.65;14.18;;;;;;;;;;6287739;28;20048;-60
2023/09/10 09:22:52;;;;;;;19.50;14.15;;;;;;;;;;6287949;28;20518;-59
2023/09/10 09:25:53;;;;;;;22.10;15.25;;;;;;;;;;6288218;28;20044;-59
2023/09/10 09:28:57;;;;;;;17.95;14.15;;;;;;;;;;6289215;28;20094;-60
2023/09/10 09:31:58;;;;;;;21.02;14.32;;;;;;;;;;6285350;28;20080;-59
2023/09/10 09:34:58;;;;;;;20.13;14.33;;;;;;;;;;6276273;28;20073;-59
2023/09/10 09:38:10;;;;;;;19.83;14.83;;;;;;;;;;6280364;28;20369;-61
2023/09/10 09:41:13;;;;;;;18.90;13.85;;;;;;;;;;6279662;28;20135;-60
2023/09/10 09:44:14;;;;;;;19.10;13.95;;;;;;;;;;6282478;28;20144;-67
2023/09/10 09:47:14;;;;;;;14.50;12.33;;;;;;;;;;6284931;28;20151;-61
2023/09/10 09:50:15;;;;;;;15.60;11.47;;;;;;;;;;6273006;28;20544;-60
2023/09/10 09:53:16;;;;;;;16.55;12.57;;;;;;;;;;6272307;28;20049;-58
2023/09/10 09:56:17;;;;;;;19.05;13.02;;;;;;;;;;6278327;28;20052;-58
2023/09/10 09:59:18;;;;;;;18.52;12.70;;;;;;;;;;6278619;28;20051;-59
2023/09/10 10:02:18;;;;;;;19.13;13.27;;;;;;;;;;6259016;28;20248;-59
2023/09/10 10:05:19;;;;;;;18.23;12.82;;;;;;;;;;6257209;28;20048;-60
2023/09/10 10:08:27;;;;;;;16.57;12.10;;;;;;;;;;6277994;28;20425;-60
2023/09/10 10:11:32;;;;;;;16.05;11.30;;;;;;;;;;6280345;28;20040;-60
2023/09/10 10:14:36;;;;;;;16.42;11.27;;;;;;;;;;6270770;28;20056;-58
2023/09/10 10:17:40;;;;;;;17.17;11.60;;;;;;;;;;6286814;28;20051;-61
2023/09/10 10:20:46;;;;;;;16.80;10.95;;;;;;;;;;6294048;28;20127;-60
2023/09/10 10:23:47;;;;;;;15.88;12.30;;;;;;;;;;6285650;28;20045;-59
2023/09/10 10:26:49;;;;;;;15.45;11.60;;;;;;;;;;6292216;28;20045;-57
2023/09/10 10:29:50;;;;;;;15.80;12.05;;;;;;;;;;6289326;28;20070;-60
2023/09/10 10:32:51;;;;;;;15.63;9.50;;;;;;;;;;6289130;28;20040;-58
2023/09/10 10:36:07;;;;;;;14.10;9.38;;;;;;;;;;6283305;28;20060;-54
2023/09/10 10:39:09;;;;;;;13.32;9.23;;;;;;;;;;6289638;28;20056;-64
2023/09/10 10:42:15;;;;;;;11.73;9.02;;;;;;;;;;6292678;28;20047;-56
2023/09/10 10:45:18;;;;;;;13.57;9.77;;;;;;;;;;6290823;28;20098;-59
2023/09/10 10:48:20;;;;;;;13.50;9.80;;;;;;;;;;6289470;28;20048;-59
2023/09/10 10:51:21;;;;;;;11.27;9.52;;;;;;;;;;6290281;28;20048;-59
2023/09/10 10:54:22;;;;;;;12.35;9.05;;;;;;;;;;6289585;28;20143;-59
2023/09/10 10:57:25;;;;;;;14.32;10.07;;;;;;;;;;6289953;28;20040;-60
2023/09/10 11:00:26;;;;;;;13.52;9.07;;;;;;;;;;6288661;28;20051;-59
2023/09/10 11:03:27;;;;;;;12.68;9.40;;;;;;;;;;6289971;28;20052;-59
2023/09/10 11:06:28;;;;;;;13.57;8.95;;;;;;;;;;6288002;28;20486;-60
2023/09/10 11:09:37;;;;;;;12.37;9.03;;;;;;;;;;6287966;28;20049;-61
2023/09/10 11:12:38;;;;;;;13.98;9.35;;;;;;;;;;6290197;28;20056;-60
2023/09/10 11:16:04;;;;;;;13.60;8.87;;;;;;;;;;6289257;28;20048;-61
2023/09/10 11:19:05;;;;;;;12.00;8.90;;;;;;;;;;6297306;28;20646;-61
2023/09/10 11:22:05;;;;;;;13.40;9.17;;;;;;;;;;6282210;28;20049;-60
2023/09/10 11:25:06;;;;;;;11.82;8.63;;;;;;;;;;6295992;28;20127;-62
2023/09/10 11:28:45;;;;;;;12.95;9.20;;;;;;;;;;6286536;28;20495;-61
2023/09/10 11:31:47;;;;;;;14.73;9.35;;;;;;;;;;6289711;28;20580;-61
2023/09/10 11:34:48;;;;;;;13.43;8.45;;;;;;;;;;6287595;28;20051;-61
2023/09/10 11:37:50;;;;;;;13.60;9.40;;;;;;;;;;6288094;28;20151;-60
2023/09/10 11:40:51;;;;;;;11.63;8.70;;;;;;;;;;6286512;28;20086;-60
2023/09/10 11:43:54;;;;;;;14.57;9.30;;;;;;;;;;6287008;28;20028;-59
2023/09/10 11:46:55;;;;;;;13.35;9.20;;;;;;;;;;6288392;28;20701;-58
2023/09/10 11:50:03;;;;;;;13.45;9.65;;;;;;;;;;6288228;28;20041;-59
2023/09/10 11:53:04;;;;;;;13.52;9.57;;;;;;;;;;6285136;28;21019;-60
2023/09/10 11:56:04;;;;;;;14.83;9.87;;;;;;;;;;6287879;28;20087;-60
2023/09/10 11:59:06;;;;;;;13.50;9.52;;;;;;;;;;6288357;28;20037;-60
2023/09/10 12:02:07;;;;;;;13.10;9.70;;;;;;;;;;6287270;28;20120;-59
2023/09/10 12:05:08;;;;;;;13.77;9.53;;;;;;;;;;6288955;28;20032;-60
2023/09/10 12:08:09;;;;;;;;;;;;;;;;;;6289692;28;20511;-60
2023/09/10 12:11:11;;;;;;;14.60;9.40;;;;;;;;;;6287949;28;19927;-60
2023/09/10 12:14:13;;;;;;;12.95;9.45;;;;;;;;;;6288024;28;20046;-59
2023/09/10 12:17:14;;;;;;;14.18;9.60;;;;;;;;;;6288052;28;20186;-59
2023/09/10 12:20:15;;;;;;;17.45;9.75;;;;;;;;;;6286921;28;20052;-60
2023/09/10 12:23:15;;;;;;;12.20;9.00;;;;;;;;;;6287641;28;20407;-62
2023/09/10 12:26:19;;;;;;;16.92;10.10;;;;;;;;;;6287633;28;20422;-58
2023/09/10 12:29:19;;;;;;;12.52;9.48;;;;;;;;;;6287952;28;20048;-61
2023/09/10 12:32:20;;;;;;;14.05;9.82;;;;;;;;;;6287689;28;20503;-60
2023/09/10 12:35:21;;;;;;;11.17;8.53;;;;;;;;;;6285379;28;20090;-60
2023/09/10 12:38:22;;;;;;;13.00;9.13;;;;;;;;;;6286350;28;20355;-60
2023/09/10 12:41:25;;;;;;;15.13;9.17;;;;;;;;;;6289376;28;20051;-60
2023/09/10 12:44:26;;;;;;;12.98;8.73;;;;;;;;;;6287478;28;20135;-60
2023/09/10 12:47:26;;;;;;;12.47;8.63;;;;;;;;;;6288021;28;20415;-61
2023/09/10 12:50:28;;;;;;;13.45;8.77;;;;;;;;;;6287062;28;20056;-59
2023/09/10 12:53:28;;;;;;;;;;;;;;;;;;6288105;28;20139;-60
2023/09/10 12:56:29;;;;;;;13.23;9.00;;;;;;;;;;6286729;28;19924;-59
2023/09/10 12:59:30;;;;;;;13.80;9.40;;;;;;;;;;6287467;28;20049;-60
2023/09/10 13:02:32;;;;;;;12.88;8.85;;;;;;;;;;6287542;28;20044;-60
2023/09/10 13:05:33;;;;;;;14.07;8.88;;;;;;;;;;6287157;28;20426;-60
2023/09/10 13:08:34;;;;;;;14.05;9.23;;;;;;;;;;6287547;28;20049;-59
2023/09/10 13:11:36;;;;;;;13.43;8.77;;;;;;;;;;6285093;28;20487;-60
2023/09/10 13:14:39;;;;;;;12.27;9.18;;;;;;;;;;6283676;28;20115;-59
2023/09/10 13:17:40;;;;;;;13.93;8.70;;;;;;;;;;6286750;28;20059;-60
2023/09/10 13:20:42;;;;;;;13.05;9.35;;;;;;;;;;6286733;28;20075;-60
2023/09/10 13:23:43;;;;;;;15.32;9.63;;;;;;;;;;6269322;28;20403;-60
2023/09/10 13:26:44;;;;;;;15.25;9.98;;;;;;;;;;6286883;28;20084;-60
2023/09/10 13:29:44;;;;;;;14.00;9.37;;;;;;;;;;6287278;28;20406;-60
2023/09/10 13:32:45;;;;;;;13.48;8.85;;;;;;;;;;6288818;28;20479;-60
2023/09/10 13:35:45;;;;;;;12.00;8.70;;;;;;;;;;6285520;28;20482;-60
2023/09/10 13:38:47;;;;;;;14.80;9.80;;;;;;;;;;6288781;28;20040;-59
2023/09/10 13:41:48;;;;;;;13.73;8.95;;;;;;;;;;6281352;28;20052;-60
2023/09/10 13:44:48;;;;;;;16.67;8.68;;;;;;;;;;6281660;28;20513;-60
2023/09/10 13:47:49;;;;;;;13.13;9.30;;;;;;;;;;6279177;28;20057;-60
2023/09/10 13:50:50;;;;;;;13.70;8.95;;;;;;;;;;6283021;28;20048;-60
2023/09/10 13:53:51;;;;;;;13.88;8.40;;;;;;;;;;6290106;28;20127;-60
2023/09/10 13:56:52;;;;;;;13.27;8.40;;;;;;;;;;6288973;28;20059;-60
2023/09/10 13:59:52;;;;;;;11.73;9.03;;;;;;;;;;6289143;28;20139;-62
2023/09/10 14:02:53;;;;;;;13.18;9.07;;;;;;;;;;6280740;28;20162;-61
2023/09/10 14:05:53;;;;;;;13.40;9.20;;;;;;;;;;6284543;28;20453;-60
2023/09/10 14:08:54;;;;;;;16.45;9.07;;;;;;;;;;6288717;28;20190;-60
2023/09/10 14:11:55;;;;;;;16.63;9.83;;;;;;;;;;6290701;28;20041;-59
2023/09/10 14:14:55;;;;;;;13.52;9.00;;;;;;;;;;6290422;28;20483;-60
2023/09/10 14:17:56;;;;;;;13.23;9.07;;;;;;;;;;6274881;28;20990;-60
2023/09/10 14:20:57;;;;;;;15.25;8.88;;;;;;;;;;6284739;28;20049;-60
2023/09/10 14:23:57;;;;;;;15.57;9.20;;;;;;;;;;6287462;28;20041;-59
2023/09/10 14:26:58;;;;;;;14.88;9.48;;;;;;;;;;6288070;28;20036;-60
2023/09/10 14:29:59;;;;;;;16.63;9.65;;;;;;;;;;6285541;28;20053;-60
2023/09/10 14:33:00;;;;;;;16.85;10.32;;;;;;;;;;6286407;28;20570;-60
2023/09/10 14:36:00;;;;;;;12.13;9.00;;;;;;;;;;6270775;28;20036;-60
2023/09/10 14:39:02;;;;;;;13.20;9.43;;;;;;;;;;6288110;28;20052;-61
2023/09/10 14:42:02;;;;;;;17.73;9.90;;;;;;;;;;6286928;28;20055;-60
2023/09/10 14:45:04;;;;;;;13.18;9.80;;;;;;;;;;6289010;28;20073;-62
2023/09/10 14:48:05;;;;;;;13.32;9.27;;;;;;;;;;6286735;28;20312;-60
2023/09/10 14:51:05;;;;;;;16.42;9.57;;;;;;;;;;6290522;28;20056;-59
2023/09/10 14:54:06;;;;;;;17.27;9.90;;;;;;;;;;6289280;28;20045;-61
2023/09/10 14:57:07;;;;;;;12.45;9.55;;;;;;;;;;6286796;28;20711;-60
2023/09/10 15:00:08;;;;;;;13.73;9.63;;;;;;;;;;6290480;28;20047;-60
2023/09/10 15:03:08;;;;;;;15.05;10.10;;;;;;;;;;6289639;28;21461;-62
2023/09/10 15:06:09;;;;;;;15.47;9.90;;;;;;;;;;6288725;28;20566;-60
2023/09/10 15:09:10;;;;;;;12.73;9.60;;;;;;;;;;6286319;28;20302;-61
2023/09/10 15:12:10;;;;;;;16.27;9.80;;;;;;;;;;6286816;28;20102;-60
2023/09/10 15:15:11;;;;;;;12.93;9.55;;;;;;;;;;6287685;28;20616;-59
2023/09/10 15:18:16;;;;;;;13.63;9.60;;;;;;;;;;6282937;28;20044;-60
2023/09/10 15:21:17;;;;;;;14.15;9.82;;;;;;;;;;6294466;28;20537;-60
2023/09/10 15:24:17;;;;;;;14.90;10.10;;;;;;;;;;6286982;28;20044;-60
2023/09/10 15:27:18;;;;;;;14.30;10.18;;;;;;;;;;6287435;28;20052;-61
2023/09/10 15:30:19;;;;;;;15.93;10.70;;;;;;;;;;6290374;28;20340;-59
2023/09/10 15:33:20;;;;;;;14.48;9.95;;;;;;;;;;6291916;28;20377;-59
2023/09/10 15:36:20;;;;;;;13.73;10.18;;;;;;;;;;6295001;28;20109;-61
2023/09/10 15:39:22;;;;;;;16.60;10.15;;;;;;;;;;6283394;28;20725;-60
2023/09/10 15:42:22;;;;;;;;;;;;;;;;;;6292911;28;20043;-60
2023/09/10 15:45:23;;;;;;;14.10;10.37;;;;;;;;;;6292714;28;19931;-60
2023/09/10 15:48:23;;;;;;;14.63;9.47;;;;;;;;;;6292440;28;20450;-59
2023/09/10 15:51:24;;;;;;;14.70;10.77;;;;;;;;;;6291376;28;20113;-59
2023/09/10 15:54:25;;;;;;;17.10;10.63;;;;;;;;;;6284476;28;20563;-59
2023/09/10 15:57:26;;;;;;;17.00;10.23;;;;;;;;;;6287267;28;20297;-60
2023/09/10 16:00:27;;;;;;;;;;;;;;;;;;6289429;28;20109;-59
2023/09/10 16:03:27;;;;;;;14.47;10.07;;;;;;;;;;6290282;28;19924;-59
2023/09/10 16:06:30;;;;;;;16.27;11.27;;;;;;;;;;6285979;28;20040;-61
2023/09/10 16:09:30;;;;;;;17.15;10.75;;;;;;;;;;6284582;28;20293;-60
2023/09/10 16:12:32;;;;;;;14.90;10.13;;;;;;;;;;6286815;28;20098;-60
2023/09/10 16:15:33;;;;;;;19.27;10.98;;;;;;;;;;6285660;28;20060;-60
2023/09/10 16:18:34;;;;;;;;;;;;;;;;;;6285026;28;20059;-61
2023/09/10 16:21:35;;;;;;;15.60;11.40;;;;;;;;;;6287234;28;19920;-59
2023/09/10 16:24:36;;;;;;;14.05;10.43;;;;;;;;;;6288161;28;20091;-58
2023/09/10 16:27:37;;;;;;;15.52;10.52;;;;;;;;;;6287008;28;20403;-58
2023/09/10 16:30:37;;;;;;;14.83;10.33;;;;;;;;;;6296322;28;20048;-58
2023/09/10 16:33:38;;;;;;;15.75;10.70;;;;;;;;;;6289053;28;20509;-59
2023/09/10 16:36:38;;;;;;;17.13;11.73;;;;;;;;;;6289283;28;20820;-59
2023/09/10 16:39:39;;;;;;;16.15;10.85;;;;;;;;;;6290789;28;20788;-59
2023/09/10 16:42:39;;;;;;;13.43;10.13;;;;;;;;;;6289565;28;20381;-65
2023/09/10 16:45:40;;;;;;;14.45;10.40;;;;;;;;;;6290720;28;20052;-63
2023/09/10 16:48:41;;;;;;;17.03;11.20;;;;;;;;;;6293228;28;20056;-59
2023/09/10 16:51:41;;;;;;;14.98;11.07;;;;;;;;;;6292026;28;20054;-61
2023/09/10 16:54:42;;;;;;;16.77;11.70;;;;;;;;;;6274706;28;20099;-60
2023/09/10 16:57:42;;;;;;;18.17;11.20;;;;;;;;;;6261618;28;20048;-58
2023/09/10 17:00:48;;;;;;;15.77;11.00;;;;;;;;;;6272164;28;20313;-63
2023/09/10 17:03:48;;;;;;;17.90;11.25;;;;;;;;;;6271190;28;20115;-60
2023/09/10 17:06:51;;;;;;;18.77;12.33;;;;;;;;;;6273011;28;20754;-62
2023/09/10 17:09:52;;;;;;;22.05;12.30;;;;;;;;;;6271832;28;20490;-62
2023/09/10 17:12:52;;;;;;;23.80;13.23;;;;;;;;;;6270879;28;20053;-61
2023/09/10 17:16:00;;;;;;;21.63;14.40;;;;;;;;;;6272656;28;20135;-61
2023/09/10 17:19:00;;;;;;;19.15;13.32;;;;;;;;;;6267835;28;20064;-61
2023/09/10 17:22:01;;;;;;;23.80;15.43;;;;;;;;;;6270187;28;20413;-60
2023/09/10 17:25:02;;;;;;;21.63;14.70;;;;;;;;;;6270029;28;20043;-60
2023/09/10 17:28:03;;;;;;;25.80;14.90;;;;;;;;;;6273592;28;20436;-59
2023/09/10 17:31:04;;;;;;;21.60;13.87;;;;;;;;;;6268810;28;20044;-58
2023/09/10 17:34:05;;;;;;;20.67;13.75;;;;;;;;;;6276579;28;20047;-61
2023/09/10 17:37:05;;;;;;;20.37;13.47;;;;;;;;;;6269976;28;20113;-61
2023/09/10 17:40:06;;;;;;;23.37;13.43;;;;;;;;;;6268915;28;20485;-63
2023/09/10 17:43:07;;;;;;;29.00;13.60;;;;;;;;;;6268757;28;20057;-62
2023/09/10 17:46:07;;;;;;;22.33;13.20;;;;;;;;;;6271806;28;20290;-61
2023/09/10 17:49:08;;;;;;;18.67;12.63;;;;;;;;;;6268125;28;20122;-61